• Join FlightAware (Why Join?)
  • Login
  • US Flag 
05:06PM EDT


 

Airport Tracker/Info


-or-


 

Live Flight TrackerFlight Track Log ✈ N785JP ✈ 09-May-2013 ✈ KTYS - KBTP

Flight Track Log - Related Links

Times and Time Zones

All times are in EDT time to prevent confusion due to time zone crossing. See the N785JP flight status page for this flight to view local times or setup timezone preferences in your user account.

Time Position Orientation Groundspeed Altitude Reporting Facility
EDT Latitude Longitude Course Direction KTS MPH feet Rate Location/Type
12:51PM 35.7747 -84.0592 19° North 164 189 2,700  Level Atlanta Center
12:52PM 35.7914 -84.0925 302° West 129 148 4,100 1,200 Climbing Atlanta Center
12:53PM 35.8350 -84.0772 16° North 100 115 5,200 1,260 Climbing Atlanta Center
12:54PM 35.8769 -84.0567 22° Northeast 121 139 6,700 1,320 Climbing Atlanta Center
12:55PM 35.9186 -84.0336 24° Northeast 143 165 7,900 1,200 Climbing Atlanta Center
12:56PM 36.0650 -83.8721 19° North  Level FlightAware Approximate
12:56PM 35.9622 -84.0106 23° Northeast 158 182 9,200  Level Atlanta Center
12:57PM 36.0083 -83.9875 22° Northeast 164 189 10,200 1,080 Climbing Atlanta Center
12:58PM 36.0542 -83.9642 22° Northeast 175 201 11,400 1,200 Climbing Atlanta Center
12:59PM 36.1000 -83.9386 24° Northeast 175 201 12,700 1,200 Climbing Atlanta Center
01:00PM 36.1458 -83.9178 20° North 175 201 13,800 1,020 Climbing Atlanta Center
01:01PM 36.1939 -83.8922 23° Northeast 175 201 14,800 1,080 Climbing Atlanta Center
01:02PM 36.2417 -83.8664 24° Northeast 175 201 16,000 960 Climbing Atlanta Center
01:03PM 36.2897 -83.8431 21° North 186 214 16,800 780 Climbing Atlanta Center
01:04PM 36.3628 -83.8017 25° Northeast 199 229 18,000 780 Climbing Indianapolis Center
01:05PM 36.4233 -83.7708 22° Northeast 199 229 18,800 480 Climbing Indianapolis Center
01:06PM 36.4764 -83.7419 24° Northeast 207 238 19,000 60 Climbing Indianapolis Center
01:07PM 36.5389 -83.7122 21° North 230 265 19,000  Level Indianapolis Center
01:09PM 36.5936 -83.6675 33° Northeast 235 270 19,000  Level Indianapolis Center
01:10PM 36.6483 -83.6253 32° Northeast 231 266 19,000  Level Indianapolis Center
01:11PM 36.7039 -83.5811 33° Northeast 235 270 19,000  Level Indianapolis Center
01:12PM 36.7700 -83.5300 32° Northeast 238 274 19,000  Level Indianapolis Center
01:13PM 36.8261 -83.4856 32° Northeast 237 273 19,000  Level Indianapolis Center
01:14PM 36.8800 -83.4425 33° Northeast 229 264 19,000  Level Indianapolis Center
01:15PM 36.9350 -83.3992 32° Northeast 231 266 19,000  Level Indianapolis Center
01:16PM 36.9900 -83.3544 33° Northeast 233 268 19,000  Level Indianapolis Center
01:17PM 37.0450 -83.3111 32° Northeast 233 268 19,000  Level Indianapolis Center
01:18PM 37.1003 -83.2678 32° Northeast 232 267 19,000  Level Indianapolis Center
01:19PM 37.1642 -83.2167 33° Northeast 232 267 19,000  Level Indianapolis Center
01:20PM 37.2175 -83.1736 33° Northeast 226 260 19,000  Level Indianapolis Center
01:21PM 37.2717 -83.1300 33° Northeast 228 262 19,000  Level Indianapolis Center
01:22PM 37.3258 -83.0853 33° Northeast 231 266 19,000  Level Indianapolis Center
01:23PM 37.3803 -83.0425 32° Northeast 229 264 19,000  Level Indianapolis Center
01:24PM 37.4356 -82.9978 33° Northeast 233 268 19,000  Level Indianapolis Center
01:25PM 37.4989 -82.9456 33° Northeast 232 267 19,000  Level Indianapolis Center
01:26PM 37.5547 -82.9011 32° Northeast 236 272 19,000  Level Indianapolis Center
01:27PM 37.6083 -82.8564 33° Northeast 232 267 19,000  Level Indianapolis Center
01:28PM 37.6636 -82.8125 32° Northeast 233 268 19,000  Level Indianapolis Center
01:29PM 37.7178 -82.7692 32° Northeast 231 266 19,000  Level Indianapolis Center
01:30PM 37.7722 -82.7233 34° Northeast 234 269 19,000  Level Indianapolis Center
01:31PM 37.8358 -82.6731 32° Northeast 232 267 19,000  Level Indianapolis Center
01:32PM 37.8889 -82.6281 34° Northeast 229 264 19,000  Level Indianapolis Center
01:33PM 37.9436 -82.5842 32° Northeast 231 266 19,000  Level Indianapolis Center
01:34PM 37.9958 -82.5406 33° Northeast 227 261 19,000  Level Indianapolis Center
01:35PM 38.0492 -82.4972 33° Northeast 227 261 19,000  Level Indianapolis Center
01:36PM 38.1097 -82.4472 33° Northeast 230 265 19,000  Level Indianapolis Center
01:37PM 38.1619 -82.4025 34° Northeast 227 261 19,000  Level Indianapolis Center
01:38PM 38.2150 -82.3586 33° Northeast 227 261 19,000  Level Indianapolis Center
01:40PM 38.2669 -82.3150 33° Northeast 225 259 19,000  Level Indianapolis Center
01:41PM 38.3194 -82.2711 33° Northeast 225 259 19,000  Level Indianapolis Center
01:42PM 38.3733 -82.2283 32° Northeast 227 261 19,000  Level Indianapolis Center
01:43PM 38.4253 -82.1839 34° Northeast 224 258 19,000  Level Indianapolis Center
01:44PM 38.4881 -82.1311 33° Northeast 223 257 19,000  Level Indianapolis Center
01:45PM 38.5411 -82.0869 33° Northeast 226 260 19,000  Level Indianapolis Center
01:46PM 38.5936 -82.0436 33° Northeast 224 258 19,000  Level Indianapolis Center
01:47PM 38.6461 -81.9981 34° Northeast 226 260 19,000  Level Indianapolis Center
01:48PM 38.6997 -81.9542 33° Northeast 227 261 19,000  Level Indianapolis Center
01:49PM 38.7514 -81.9106 33° Northeast 223 257 19,000  Level Indianapolis Center
01:50PM 38.8033 -81.8667 33° Northeast 222 255 19,000  Level Indianapolis Center
01:51PM 38.8536 -81.8183 37° Northeast 223 257 19,000  Level Indianapolis Center
01:52PM 38.9133 -81.7600 37° Northeast 222 255 19,000  Level Indianapolis Center
01:53PM 38.9614 -81.7075 40° Northeast 225 259 19,000  Level Indianapolis Center
01:54PM 39.0100 -81.6556 40° Northeast 226 260 19,000  Level Indianapolis Center
01:55PM 39.0589 -81.6053 39° Northeast 225 259 19,000  Level Indianapolis Center
01:56PM 39.1061 -81.5517 41° Northeast 227 261 19,000  Level Indianapolis Center
01:57PM 39.1536 -81.4986 41° Northeast 226 260 19,000  Level Indianapolis Center
01:58PM 39.1981 -81.4406 45° Northeast 227 261 19,000  Level Indianapolis Center
01:59PM 39.2442 -81.3864 42° Northeast 224 258 19,000  Level Indianapolis Center
02:00PM 39.2986 -81.3189 44° Northeast 226 260 19,000  Level Indianapolis Center
02:01PM 39.3494 -81.2706 36° Northeast 226 260 19,000  Level Indianapolis Center
02:02PM 39.3994 -81.2231 36° Northeast 224 258 19,000  Level Indianapolis Center
02:03PM 39.4403 -81.1878 34° Northeast 224 258 19,000  Level Cleveland Center
02:04PM 39.4906 -81.1425 35° Northeast 224 258 19,000  Level Cleveland Center
02:05PM 39.5406 -81.1000 33° Northeast 219 252 19,000  Level Cleveland Center
02:05PM 39.5483 -81.0883 49° Northeast 217 250 19,000  Level Indianapolis Center
02:06PM 39.5978 -81.0433 35° Northeast 218 251 19,000  Level Indianapolis Center
02:07PM 39.6411 -81.0064 33° Northeast 219 252 19,000 -120 Level Cleveland Center
02:08PM 39.6914 -80.9633 33° Northeast 219 252 18,800 -480 Descending Cleveland Center
02:09PM 39.7436 -80.9125 37° Northeast 219 252 18,100 -600 Descending Cleveland Center
02:10PM 39.7958 -80.8642 35° Northeast 219 252 17,700 -540 Descending Cleveland Center
02:11PM 39.8481 -80.8156 36° Northeast 219 252 17,100 -600 Descending Cleveland Center
02:12PM 39.9022 -80.7672 34° Northeast 219 252 16,600 -600 Descending Cleveland Center
02:13PM 39.9567 -80.7183 35° Northeast 225 259 16,000 -600 Descending Cleveland Center
02:14PM 40.0108 -80.6697 34° Northeast 230 265 15,500 -600 Descending Cleveland Center
02:15PM 40.0650 -80.6183 36° Northeast 235 270 14,900 -600 Descending Cleveland Center
02:16PM 40.1192 -80.5667 36° Northeast 235 270 14,300 -660 Descending Cleveland Center
02:17PM 40.1756 -80.5153 35° Northeast 241 277 13,600 -780 Descending Cleveland Center
02:18PM 40.2297 -80.4608 37° Northeast 241 277 12,800 -720 Descending Cleveland Center
02:19PM 40.2756 -80.3925 49° Northeast 241 277 12,200 -720 Descending Cleveland Center
02:20PM 40.3211 -80.3297 46° Northeast 236 272 11,400 -840 Descending Cleveland Center
02:22PM 40.3967 -80.2771 28° Northeast  Level FlightAware Approximate
02:29PM 40.7451 -79.9715 37° Northeast  Level FlightAware Approximate
02:30PM 40.7667 -79.9500 37° Northeast  Level FlightAware Approximate
02:31PM 40.7766 -79.9511 37° Northeast  Level Estimated
02:32PM 40.7766 -79.9511 37° Northeast  Level Estimated
02:33PM 40.7766 -79.9511 37° Northeast  Level Estimated
02:34PM 40.7766 -79.9511 37° Northeast  Level Estimated
02:35PM 40.7766 -79.9511 37° Northeast  Level Estimated
02:36PM 40.7766 -79.9511 37° Northeast  Level Estimated
02:37PM 40.7766 -79.9511 37° Northeast  Level Estimated
02:38PM 40.7766 -79.9511 37° Northeast  Level Estimated
02:39PM 40.7766 -79.9511 37° Northeast  Level Estimated
02:40PM 40.7766 -79.9511 37° Northeast  Level Estimated